sensor_id;sensor_type;location;lat;lon;timestamp;P1;durP1;ratioP1;P2;durP2;ratioP2
78875;SDS011;68253;52.506;5.486;2024-03-08T00:00:08;22.23;;;9.23;;
78875;SDS011;68253;52.506;5.486;2024-03-08T00:02:38;21.10;;;9.00;;
78875;SDS011;68253;52.506;5.486;2024-03-08T00:05:05;22.80;;;9.57;;
78875;SDS011;68253;52.506;5.486;2024-03-08T00:07:37;22.95;;;9.23;;
78875;SDS011;68253;52.506;5.486;2024-03-08T00:10:05;22.00;;;8.52;;
78875;SDS011;68253;52.506;5.486;2024-03-08T00:12:33;21.55;;;9.43;;
78875;SDS011;68253;52.506;5.486;2024-03-08T00:14:59;22.40;;;9.40;;
78875;SDS011;68253;52.506;5.486;2024-03-08T00:17:25;20.17;;;8.75;;
78875;SDS011;68253;52.506;5.486;2024-03-08T00:19:52;21.27;;;8.95;;
78875;SDS011;68253;52.506;5.486;2024-03-08T00:22:18;23.48;;;9.95;;
78875;SDS011;68253;52.506;5.486;2024-03-08T00:24:44;19.27;;;8.20;;
78875;SDS011;68253;52.506;5.486;2024-03-08T00:27:11;22.88;;;10.30;;
78875;SDS011;68253;52.506;5.486;2024-03-08T00:29:37;23.15;;;10.65;;
78875;SDS011;68253;52.506;5.486;2024-03-08T00:32:06;21.70;;;9.85;;
78875;SDS011;68253;52.506;5.486;2024-03-08T00:34:36;18.48;;;7.50;;
78875;SDS011;68253;52.506;5.486;2024-03-08T00:37:02;19.35;;;8.10;;
78875;SDS011;68253;52.506;5.486;2024-03-08T00:39:29;17.27;;;7.95;;
78875;SDS011;68253;52.506;5.486;2024-03-08T00:41:56;21.27;;;9.32;;
78875;SDS011;68253;52.506;5.486;2024-03-08T00:44:22;18.65;;;7.97;;
78875;SDS011;68253;52.506;5.486;2024-03-08T00:46:50;20.10;;;9.25;;
78875;SDS011;68253;52.506;5.486;2024-03-08T00:49:16;18.80;;;8.55;;
78875;SDS011;68253;52.506;5.486;2024-03-08T00:51:42;23.58;;;11.00;;
78875;SDS011;68253;52.506;5.486;2024-03-08T00:54:09;20.58;;;8.88;;
78875;SDS011;68253;52.506;5.486;2024-03-08T00:56:35;21.00;;;9.02;;
78875;SDS011;68253;52.506;5.486;2024-03-08T00:59:01;20.83;;;9.13;;
78875;SDS011;68253;52.506;5.486;2024-03-08T01:01:28;21.02;;;9.80;;
78875;SDS011;68253;52.506;5.486;2024-03-08T01:03:54;18.60;;;8.88;;
78875;SDS011;68253;52.506;5.486;2024-03-08T01:06:22;20.20;;;9.15;;
78875;SDS011;68253;52.506;5.486;2024-03-08T01:08:48;18.13;;;7.90;;
78875;SDS011;68253;52.506;5.486;2024-03-08T01:11:18;22.73;;;9.05;;
78875;SDS011;68253;52.506;5.486;2024-03-08T01:13:44;22.48;;;9.32;;
78875;SDS011;68253;52.506;5.486;2024-03-08T01:16:12;21.27;;;9.15;;
78875;SDS011;68253;52.506;5.486;2024-03-08T01:18:39;19.92;;;8.93;;
78875;SDS011;68253;52.506;5.486;2024-03-08T01:21:05;20.58;;;8.70;;
78875;SDS011;68253;52.506;5.486;2024-03-08T01:23:31;20.50;;;8.70;;
78875;SDS011;68253;52.506;5.486;2024-03-08T01:25:57;19.20;;;8.52;;
78875;SDS011;68253;52.506;5.486;2024-03-08T01:28:24;20.45;;;8.57;;
78875;SDS011;68253;52.506;5.486;2024-03-08T01:30:50;23.63;;;9.50;;
78875;SDS011;68253;52.506;5.486;2024-03-08T01:33:24;18.48;;;8.38;;
78875;SDS011;68253;52.506;5.486;2024-03-08T01:35:51;18.50;;;7.82;;
78875;SDS011;68253;52.506;5.486;2024-03-08T01:38:18;19.30;;;8.63;;
78875;SDS011;68253;52.506;5.486;2024-03-08T01:40:46;21.05;;;9.90;;
78875;SDS011;68253;52.506;5.486;2024-03-08T01:45:52;20.40;;;8.90;;
78875;SDS011;68253;52.506;5.486;2024-03-08T01:48:18;20.58;;;8.73;;
78875;SDS011;68253;52.506;5.486;2024-03-08T01:50:49;20.23;;;8.85;;
78875;SDS011;68253;52.506;5.486;2024-03-08T01:53:16;23.60;;;10.35;;
78875;SDS011;68253;52.506;5.486;2024-03-08T01:55:44;22.55;;;9.50;;
78875;SDS011;68253;52.506;5.486;2024-03-08T01:58:12;24.05;;;10.25;;
78875;SDS011;68253;52.506;5.486;2024-03-08T02:00:44;21.30;;;9.85;;
78875;SDS011;68253;52.506;5.486;2024-03-08T02:03:12;20.10;;;8.70;;
78875;SDS011;68253;52.506;5.486;2024-03-08T02:05:40;23.40;;;9.57;;
78875;SDS011;68253;52.506;5.486;2024-03-08T02:08:06;19.58;;;9.25;;
78875;SDS011;68253;52.506;5.486;2024-03-08T02:10:38;21.02;;;9.20;;
78875;SDS011;68253;52.506;5.486;2024-03-08T02:13:04;25.85;;;10.20;;
78875;SDS011;68253;52.506;5.486;2024-03-08T02:18:24;20.27;;;8.68;;
78875;SDS011;68253;52.506;5.486;2024-03-08T02:20:52;18.67;;;8.18;;
78875;SDS011;68253;52.506;5.486;2024-03-08T02:23:19;22.65;;;10.43;;
78875;SDS011;68253;52.506;5.486;2024-03-08T02:25:46;23.92;;;11.25;;
78875;SDS011;68253;52.506;5.486;2024-03-08T02:28:13;22.27;;;9.65;;
78875;SDS011;68253;52.506;5.486;2024-03-08T02:30:39;25.05;;;10.35;;
78875;SDS011;68253;52.506;5.486;2024-03-08T02:33:06;25.27;;;11.38;;
78875;SDS011;68253;52.506;5.486;2024-03-08T02:35:35;21.77;;;9.52;;
78875;SDS011;68253;52.506;5.486;2024-03-08T02:38:02;20.52;;;9.77;;
78875;SDS011;68253;52.506;5.486;2024-03-08T02:40:29;23.95;;;11.73;;
78875;SDS011;68253;52.506;5.486;2024-03-08T02:42:55;23.27;;;10.60;;
78875;SDS011;68253;52.506;5.486;2024-03-08T02:45:21;23.92;;;9.95;;
78875;SDS011;68253;52.506;5.486;2024-03-08T02:47:47;23.65;;;11.05;;
78875;SDS011;68253;52.506;5.486;2024-03-08T02:50:15;22.13;;;10.07;;
78875;SDS011;68253;52.506;5.486;2024-03-08T02:52:42;22.45;;;10.63;;
78875;SDS011;68253;52.506;5.486;2024-03-08T02:55:09;24.23;;;11.07;;
78875;SDS011;68253;52.506;5.486;2024-03-08T02:57:36;22.33;;;10.45;;
78875;SDS011;68253;52.506;5.486;2024-03-08T03:00:02;23.80;;;10.60;;
78875;SDS011;68253;52.506;5.486;2024-03-08T03:02:35;23.48;;;11.15;;
78875;SDS011;68253;52.506;5.486;2024-03-08T03:05:01;20.27;;;9.30;;
78875;SDS011;68253;52.506;5.486;2024-03-08T03:07:35;21.58;;;10.65;;
78875;SDS011;68253;52.506;5.486;2024-03-08T03:12:28;22.65;;;9.35;;
78875;SDS011;68253;52.506;5.486;2024-03-08T03:14:54;23.33;;;9.70;;
78875;SDS011;68253;52.506;5.486;2024-03-08T03:17:25;23.00;;;9.88;;
78875;SDS011;68253;52.506;5.486;2024-03-08T03:22:18;27.20;;;12.18;;
78875;SDS011;68253;52.506;5.486;2024-03-08T03:24:45;22.65;;;10.57;;
78875;SDS011;68253;52.506;5.486;2024-03-08T03:27:17;21.05;;;9.85;;
78875;SDS011;68253;52.506;5.486;2024-03-08T03:29:43;23.58;;;11.02;;
78875;SDS011;68253;52.506;5.486;2024-03-08T03:32:13;21.55;;;10.07;;
78875;SDS011;68253;52.506;5.486;2024-03-08T03:34:39;19.88;;;9.07;;
78875;SDS011;68253;52.506;5.486;2024-03-08T03:37:06;23.60;;;11.05;;
78875;SDS011;68253;52.506;5.486;2024-03-08T03:39:34;21.55;;;10.88;;
78875;SDS011;68253;52.506;5.486;2024-03-08T03:42:06;23.25;;;9.98;;
78875;SDS011;68253;52.506;5.486;2024-03-08T03:44:32;20.95;;;9.77;;
78875;SDS011;68253;52.506;5.486;2024-03-08T03:46:58;20.13;;;8.40;;
78875;SDS011;68253;52.506;5.486;2024-03-08T03:49:24;26.08;;;11.43;;
78875;SDS011;68253;52.506;5.486;2024-03-08T03:51:50;28.02;;;12.50;;
78875;SDS011;68253;52.506;5.486;2024-03-08T03:54:16;24.27;;;11.32;;
78875;SDS011;68253;52.506;5.486;2024-03-08T03:56:42;24.08;;;11.10;;
78875;SDS011;68253;52.506;5.486;2024-03-08T03:59:08;24.25;;;11.65;;
78875;SDS011;68253;52.506;5.486;2024-03-08T04:01:35;21.75;;;10.48;;
78875;SDS011;68253;52.506;5.486;2024-03-08T04:04:01;23.92;;;11.68;;
78875;SDS011;68253;52.506;5.486;2024-03-08T04:06:27;22.75;;;10.70;;
78875;SDS011;68253;52.506;5.486;2024-03-08T04:08:54;23.58;;;10.35;;
78875;SDS011;68253;52.506;5.486;2024-03-08T04:11:20;23.20;;;10.18;;
78875;SDS011;68253;52.506;5.486;2024-03-08T04:13:46;22.20;;;11.07;;
78875;SDS011;68253;52.506;5.486;2024-03-08T04:16:13;20.55;;;9.82;;
78875;SDS011;68253;52.506;5.486;2024-03-08T04:18:39;26.55;;;12.55;;
78875;SDS011;68253;52.506;5.486;2024-03-08T04:21:05;23.67;;;10.93;;
78875;SDS011;68253;52.506;5.486;2024-03-08T04:23:35;24.27;;;12.07;;
78875;SDS011;68253;52.506;5.486;2024-03-08T04:26:02;26.25;;;12.93;;
78875;SDS011;68253;52.506;5.486;2024-03-08T04:28:30;22.50;;;10.98;;
78875;SDS011;68253;52.506;5.486;2024-03-08T04:30:57;24.25;;;11.90;;
78875;SDS011;68253;52.506;5.486;2024-03-08T04:33:23;25.58;;;12.15;;
78875;SDS011;68253;52.506;5.486;2024-03-08T04:35:49;24.85;;;12.00;;
78875;SDS011;68253;52.506;5.486;2024-03-08T04:38:15;24.20;;;11.88;;
78875;SDS011;68253;52.506;5.486;2024-03-08T04:40:41;24.35;;;11.63;;
78875;SDS011;68253;52.506;5.486;2024-03-08T04:43:07;24.77;;;11.27;;
78875;SDS011;68253;52.506;5.486;2024-03-08T04:45:34;28.92;;;12.27;;
78875;SDS011;68253;52.506;5.486;2024-03-08T04:48:00;26.77;;;12.85;;
78875;SDS011;68253;52.506;5.486;2024-03-08T04:50:26;28.85;;;12.50;;
78875;SDS011;68253;52.506;5.486;2024-03-08T04:52:54;23.17;;;10.85;;
78875;SDS011;68253;52.506;5.486;2024-03-08T04:55:21;21.40;;;9.23;;
78875;SDS011;68253;52.506;5.486;2024-03-08T04:57:47;27.02;;;12.95;;
78875;SDS011;68253;52.506;5.486;2024-03-08T05:00:14;23.08;;;11.15;;
78875;SDS011;68253;52.506;5.486;2024-03-08T05:02:41;26.58;;;12.55;;
78875;SDS011;68253;52.506;5.486;2024-03-08T05:05:07;26.15;;;11.90;;
78875;SDS011;68253;52.506;5.486;2024-03-08T05:07:38;24.90;;;11.88;;
78875;SDS011;68253;52.506;5.486;2024-03-08T05:10:05;26.75;;;13.50;;
78875;SDS011;68253;52.506;5.486;2024-03-08T05:12:32;26.50;;;12.63;;
78875;SDS011;68253;52.506;5.486;2024-03-08T05:14:59;21.33;;;10.15;;
78875;SDS011;68253;52.506;5.486;2024-03-08T05:17:25;23.08;;;11.80;;
78875;SDS011;68253;52.506;5.486;2024-03-08T05:19:52;23.00;;;11.07;;
78875;SDS011;68253;52.506;5.486;2024-03-08T05:22:19;24.35;;;12.45;;
78875;SDS011;68253;52.506;5.486;2024-03-08T05:24:45;25.20;;;11.32;;
78875;SDS011;68253;52.506;5.486;2024-03-08T05:27:11;23.98;;;11.95;;
78875;SDS011;68253;52.506;5.486;2024-03-08T05:29:38;23.38;;;11.88;;
78875;SDS011;68253;52.506;5.486;2024-03-08T05:32:04;22.98;;;11.82;;
78875;SDS011;68253;52.506;5.486;2024-03-08T05:34:30;24.80;;;11.88;;
78875;SDS011;68253;52.506;5.486;2024-03-08T05:36:57;26.65;;;12.98;;
78875;SDS011;68253;52.506;5.486;2024-03-08T05:39:24;25.58;;;12.82;;
78875;SDS011;68253;52.506;5.486;2024-03-08T05:41:50;24.00;;;11.30;;
78875;SDS011;68253;52.506;5.486;2024-03-08T05:44:16;24.15;;;10.48;;
78875;SDS011;68253;52.506;5.486;2024-03-08T05:46:42;26.33;;;12.23;;
78875;SDS011;68253;52.506;5.486;2024-03-08T05:49:09;25.85;;;12.85;;
78875;SDS011;68253;52.506;5.486;2024-03-08T05:51:39;26.58;;;12.65;;
78875;SDS011;68253;52.506;5.486;2024-03-08T05:54:09;22.50;;;10.00;;
78875;SDS011;68253;52.506;5.486;2024-03-08T05:56:37;26.98;;;13.40;;
78875;SDS011;68253;52.506;5.486;2024-03-08T05:59:04;25.95;;;11.48;;
78875;SDS011;68253;52.506;5.486;2024-03-08T06:01:30;23.45;;;11.30;;
78875;SDS011;68253;52.506;5.486;2024-03-08T06:03:56;27.88;;;14.32;;
78875;SDS011;68253;52.506;5.486;2024-03-08T06:06:23;23.52;;;11.65;;
78875;SDS011;68253;52.506;5.486;2024-03-08T06:08:50;25.40;;;12.93;;
78875;SDS011;68253;52.506;5.486;2024-03-08T06:11:17;24.60;;;11.85;;
78875;SDS011;68253;52.506;5.486;2024-03-08T06:13:44;22.30;;;10.88;;
78875;SDS011;68253;52.506;5.486;2024-03-08T06:16:10;27.77;;;13.50;;
78875;SDS011;68253;52.506;5.486;2024-03-08T06:18:37;24.52;;;12.45;;
78875;SDS011;68253;52.506;5.486;2024-03-08T06:21:05;26.10;;;12.40;;
78875;SDS011;68253;52.506;5.486;2024-03-08T06:23:32;27.23;;;13.63;;
78875;SDS011;68253;52.506;5.486;2024-03-08T06:26:04;29.70;;;13.60;;
78875;SDS011;68253;52.506;5.486;2024-03-08T06:28:30;25.98;;;13.32;;
78875;SDS011;68253;52.506;5.486;2024-03-08T06:31:01;28.42;;;13.40;;
78875;SDS011;68253;52.506;5.486;2024-03-08T06:35:54;25.98;;;13.05;;
78875;SDS011;68253;52.506;5.486;2024-03-08T06:38:26;26.45;;;12.93;;
78875;SDS011;68253;52.506;5.486;2024-03-08T06:40:52;26.67;;;13.45;;
78875;SDS011;68253;52.506;5.486;2024-03-08T06:43:20;26.55;;;13.25;;
78875;SDS011;68253;52.506;5.486;2024-03-08T06:45:46;24.83;;;12.77;;
78875;SDS011;68253;52.506;5.486;2024-03-08T06:48:16;24.08;;;12.40;;
78875;SDS011;68253;52.506;5.486;2024-03-08T06:50:46;26.83;;;13.27;;
78875;SDS011;68253;52.506;5.486;2024-03-08T06:53:13;23.48;;;12.32;;
78875;SDS011;68253;52.506;5.486;2024-03-08T06:55:39;27.25;;;13.93;;
78875;SDS011;68253;52.506;5.486;2024-03-08T06:58:05;28.42;;;13.73;;
78875;SDS011;68253;52.506;5.486;2024-03-08T07:00:36;30.27;;;15.35;;
78875;SDS011;68253;52.506;5.486;2024-03-08T07:03:03;26.85;;;13.50;;
78875;SDS011;68253;52.506;5.486;2024-03-08T07:05:32;26.15;;;13.35;;
78875;SDS011;68253;52.506;5.486;2024-03-08T07:07:58;28.23;;;13.57;;
78875;SDS011;68253;52.506;5.486;2024-03-08T07:10:24;27.85;;;13.55;;
78875;SDS011;68253;52.506;5.486;2024-03-08T07:12:51;30.05;;;15.15;;
78875;SDS011;68253;52.506;5.486;2024-03-08T07:15:18;27.73;;;13.75;;
78875;SDS011;68253;52.506;5.486;2024-03-08T07:17:48;26.77;;;12.95;;
78875;SDS011;68253;52.506;5.486;2024-03-08T07:20:14;26.02;;;13.68;;
78875;SDS011;68253;52.506;5.486;2024-03-08T07:22:44;24.05;;;12.48;;
78875;SDS011;68253;52.506;5.486;2024-03-08T07:25:16;25.95;;;13.35;;
78875;SDS011;68253;52.506;5.486;2024-03-08T07:27:53;23.50;;;12.63;;
78875;SDS011;68253;52.506;5.486;2024-03-08T07:30:20;29.27;;;16.00;;
78875;SDS011;68253;52.506;5.486;2024-03-08T07:33:06;24.60;;;12.63;;
78875;SDS011;68253;52.506;5.486;2024-03-08T07:35:33;26.65;;;13.55;;
78875;SDS011;68253;52.506;5.486;2024-03-08T07:38:03;23.92;;;11.98;;
78875;SDS011;68253;52.506;5.486;2024-03-08T07:40:37;24.10;;;12.73;;
78875;SDS011;68253;52.506;5.486;2024-03-08T07:43:06;25.48;;;12.70;;
78875;SDS011;68253;52.506;5.486;2024-03-08T07:45:33;23.42;;;13.35;;
78875;SDS011;68253;52.506;5.486;2024-03-08T07:47:59;24.45;;;12.30;;
78875;SDS011;68253;52.506;5.486;2024-03-08T07:50:25;22.27;;;11.75;;
78875;SDS011;68253;52.506;5.486;2024-03-08T07:52:51;23.60;;;11.98;;
78875;SDS011;68253;52.506;5.486;2024-03-08T07:55:17;24.50;;;12.88;;
78875;SDS011;68253;52.506;5.486;2024-03-08T07:57:44;20.75;;;11.15;;
78875;SDS011;68253;52.506;5.486;2024-03-08T08:00:10;25.20;;;12.95;;
78875;SDS011;68253;52.506;5.486;2024-03-08T08:02:43;20.83;;;12.02;;
78875;SDS011;68253;52.506;5.486;2024-03-08T08:05:11;23.15;;;12.13;;
78875;SDS011;68253;52.506;5.486;2024-03-08T08:07:37;23.42;;;13.68;;
78875;SDS011;68253;52.506;5.486;2024-03-08T08:10:03;22.63;;;12.40;;
78875;SDS011;68253;52.506;5.486;2024-03-08T08:12:32;23.33;;;11.95;;
78875;SDS011;68253;52.506;5.486;2024-03-08T08:15:00;23.25;;;12.57;;
78875;SDS011;68253;52.506;5.486;2024-03-08T08:17:26;25.02;;;13.75;;
78875;SDS011;68253;52.506;5.486;2024-03-08T08:19:52;24.60;;;12.45;;
78875;SDS011;68253;52.506;5.486;2024-03-08T08:22:18;24.48;;;13.88;;
78875;SDS011;68253;52.506;5.486;2024-03-08T08:24:45;23.17;;;12.35;;
78875;SDS011;68253;52.506;5.486;2024-03-08T08:27:11;23.02;;;12.60;;
78875;SDS011;68253;52.506;5.486;2024-03-08T08:29:37;21.33;;;12.27;;
78875;SDS011;68253;52.506;5.486;2024-03-08T08:32:03;24.88;;;14.40;;
78875;SDS011;68253;52.506;5.486;2024-03-08T08:34:30;21.50;;;11.40;;
78875;SDS011;68253;52.506;5.486;2024-03-08T08:36:56;24.85;;;13.63;;
78875;SDS011;68253;52.506;5.486;2024-03-08T08:39:23;25.58;;;13.75;;
78875;SDS011;68253;52.506;5.486;2024-03-08T08:41:51;23.70;;;12.88;;
78875;SDS011;68253;52.506;5.486;2024-03-08T08:44:18;24.70;;;14.32;;
78875;SDS011;68253;52.506;5.486;2024-03-08T08:46:44;23.15;;;12.35;;
78875;SDS011;68253;52.506;5.486;2024-03-08T08:49:10;27.58;;;14.80;;
78875;SDS011;68253;52.506;5.486;2024-03-08T08:54:05;23.30;;;12.85;;
78875;SDS011;68253;52.506;5.486;2024-03-08T08:56:32;25.23;;;13.45;;
78875;SDS011;68253;52.506;5.486;2024-03-08T08:58:58;26.45;;;13.82;;
78875;SDS011;68253;52.506;5.486;2024-03-08T09:01:24;21.05;;;12.57;;
78875;SDS011;68253;52.506;5.486;2024-03-08T09:03:50;25.55;;;13.38;;
78875;SDS011;68253;52.506;5.486;2024-03-08T09:06:17;24.75;;;13.02;;
78875;SDS011;68253;52.506;5.486;2024-03-08T09:08:43;23.23;;;12.70;;
78875;SDS011;68253;52.506;5.486;2024-03-08T09:11:10;26.33;;;15.45;;
78875;SDS011;68253;52.506;5.486;2024-03-08T09:13:37;27.35;;;13.90;;
78875;SDS011;68253;52.506;5.486;2024-03-08T09:16:03;25.30;;;13.80;;
78875;SDS011;68253;52.506;5.486;2024-03-08T09:18:32;27.42;;;15.15;;
78875;SDS011;68253;52.506;5.486;2024-03-08T09:20:59;25.83;;;14.20;;
78875;SDS011;68253;52.506;5.486;2024-03-08T09:23:25;25.67;;;14.02;;
78875;SDS011;68253;52.506;5.486;2024-03-08T09:25:58;25.13;;;14.50;;
78875;SDS011;68253;52.506;5.486;2024-03-08T09:28:25;23.13;;;12.75;;
78875;SDS011;68253;52.506;5.486;2024-03-08T09:30:52;23.13;;;12.85;;
78875;SDS011;68253;52.506;5.486;2024-03-08T09:33:19;22.73;;;12.65;;
78875;SDS011;68253;52.506;5.486;2024-03-08T09:35:45;23.15;;;13.13;;
78875;SDS011;68253;52.506;5.486;2024-03-08T09:38:12;24.70;;;13.13;;
78875;SDS011;68253;52.506;5.486;2024-03-08T09:40:41;25.95;;;13.07;;
78875;SDS011;68253;52.506;5.486;2024-03-08T09:43:07;24.27;;;13.38;;
78875;SDS011;68253;52.506;5.486;2024-03-08T09:45:35;21.35;;;12.38;;
78875;SDS011;68253;52.506;5.486;2024-03-08T09:48:06;24.77;;;13.88;;
78875;SDS011;68253;52.506;5.486;2024-03-08T09:50:38;23.83;;;12.27;;
78875;SDS011;68253;52.506;5.486;2024-03-08T09:53:04;24.00;;;13.27;;
78875;SDS011;68253;52.506;5.486;2024-03-08T09:55:37;26.00;;;14.90;;
78875;SDS011;68253;52.506;5.486;2024-03-08T09:58:08;22.33;;;12.85;;
78875;SDS011;68253;52.506;5.486;2024-03-08T10:00:54;23.30;;;12.73;;
78875;SDS011;68253;52.506;5.486;2024-03-08T10:03:23;25.40;;;14.27;;
78875;SDS011;68253;52.506;5.486;2024-03-08T10:05:51;24.65;;;13.25;;
78875;SDS011;68253;52.506;5.486;2024-03-08T10:08:17;23.92;;;12.90;;
78875;SDS011;68253;52.506;5.486;2024-03-08T10:10:44;26.60;;;14.02;;
78875;SDS011;68253;52.506;5.486;2024-03-08T10:13:10;25.08;;;14.20;;
78875;SDS011;68253;52.506;5.486;2024-03-08T10:15:39;25.70;;;14.63;;
78875;SDS011;68253;52.506;5.486;2024-03-08T10:18:06;28.10;;;15.38;;
78875;SDS011;68253;52.506;5.486;2024-03-08T10:20:32;23.25;;;12.95;;
78875;SDS011;68253;52.506;5.486;2024-03-08T10:22:59;24.05;;;13.38;;
78875;SDS011;68253;52.506;5.486;2024-03-08T10:25:29;25.17;;;13.88;;
78875;SDS011;68253;52.506;5.486;2024-03-08T10:27:58;22.50;;;12.98;;
78875;SDS011;68253;52.506;5.486;2024-03-08T10:30:24;22.77;;;13.20;;
78875;SDS011;68253;52.506;5.486;2024-03-08T10:32:50;23.25;;;13.57;;
78875;SDS011;68253;52.506;5.486;2024-03-08T10:35:17;26.25;;;14.48;;
78875;SDS011;68253;52.506;5.486;2024-03-08T10:37:50;24.30;;;13.63;;
78875;SDS011;68253;52.506;5.486;2024-03-08T10:40:28;24.88;;;13.63;;
78875;SDS011;68253;52.506;5.486;2024-03-08T10:42:56;22.70;;;12.52;;
78875;SDS011;68253;52.506;5.486;2024-03-08T10:45:31;26.92;;;14.13;;
78875;SDS011;68253;52.506;5.486;2024-03-08T10:50:36;25.42;;;13.23;;
78875;SDS011;68253;52.506;5.486;2024-03-08T10:53:03;23.02;;;13.07;;
78875;SDS011;68253;52.506;5.486;2024-03-08T10:55:33;23.50;;;13.38;;
78875;SDS011;68253;52.506;5.486;2024-03-08T10:57:59;25.80;;;13.93;;
78875;SDS011;68253;52.506;5.486;2024-03-08T11:00:26;25.67;;;14.20;;
78875;SDS011;68253;52.506;5.486;2024-03-08T11:02:55;23.80;;;13.40;;
78875;SDS011;68253;52.506;5.486;2024-03-08T11:05:32;25.23;;;13.85;;
78875;SDS011;68253;52.506;5.486;2024-03-08T11:08:17;23.48;;;13.98;;
78875;SDS011;68253;52.506;5.486;2024-03-08T11:10:48;25.45;;;12.95;;
78875;SDS011;68253;52.506;5.486;2024-03-08T11:14:02;20.83;;;11.50;;
78875;SDS011;68253;52.506;5.486;2024-03-08T11:16:10;24.23;;;13.07;;
78875;SDS011;68253;52.506;5.486;2024-03-08T11:18:37;21.58;;;11.95;;
78875;SDS011;68253;52.506;5.486;2024-03-08T11:21:04;22.00;;;12.40;;
78875;SDS011;68253;52.506;5.486;2024-03-08T11:23:38;23.52;;;13.15;;
78875;SDS011;68253;52.506;5.486;2024-03-08T11:26:18;24.10;;;12.73;;
78875;SDS011;68253;52.506;5.486;2024-03-08T11:28:45;24.30;;;13.13;;
78875;SDS011;68253;52.506;5.486;2024-03-08T11:33:40;20.67;;;11.73;;
78875;SDS011;68253;52.506;5.486;2024-03-08T11:36:13;22.45;;;12.32;;
78875;SDS011;68253;52.506;5.486;2024-03-08T11:38:51;22.45;;;12.48;;
78875;SDS011;68253;52.506;5.486;2024-03-08T11:41:20;22.73;;;12.57;;
78875;SDS011;68253;52.506;5.486;2024-03-08T11:43:47;23.92;;;13.27;;
78875;SDS011;68253;52.506;5.486;2024-03-08T11:46:15;21.95;;;11.55;;
78875;SDS011;68253;52.506;5.486;2024-03-08T11:48:42;21.52;;;12.18;;
78875;SDS011;68253;52.506;5.486;2024-03-08T11:51:13;22.25;;;12.05;;
78875;SDS011;68253;52.506;5.486;2024-03-08T11:53:41;20.55;;;11.38;;
78875;SDS011;68253;52.506;5.486;2024-03-08T11:56:08;22.38;;;12.27;;
78875;SDS011;68253;52.506;5.486;2024-03-08T11:58:34;22.77;;;12.80;;
78875;SDS011;68253;52.506;5.486;2024-03-08T12:01:04;20.67;;;12.13;;
78875;SDS011;68253;52.506;5.486;2024-03-08T12:03:31;22.05;;;11.80;;
78875;SDS011;68253;52.506;5.486;2024-03-08T12:06:00;24.92;;;13.60;;
78875;SDS011;68253;52.506;5.486;2024-03-08T12:08:32;18.17;;;9.98;;
78875;SDS011;68253;52.506;5.486;2024-03-08T12:13:27;20.80;;;11.52;;
78875;SDS011;68253;52.506;5.486;2024-03-08T12:15:56;20.75;;;11.18;;
78875;SDS011;68253;52.506;5.486;2024-03-08T12:18:25;26.30;;;13.15;;
78875;SDS011;68253;52.506;5.486;2024-03-08T12:21:12;22.23;;;11.82;;
78875;SDS011;68253;52.506;5.486;2024-03-08T12:23:50;21.23;;;11.75;;
78875;SDS011;68253;52.506;5.486;2024-03-08T12:26:37;23.27;;;12.98;;
78875;SDS011;68253;52.506;5.486;2024-03-08T12:29:20;22.63;;;12.50;;
78875;SDS011;68253;52.506;5.486;2024-03-08T12:31:57;21.35;;;12.43;;
78875;SDS011;68253;52.506;5.486;2024-03-08T12:34:27;20.55;;;12.32;;
78875;SDS011;68253;52.506;5.486;2024-03-08T12:36:54;23.38;;;12.55;;
78875;SDS011;68253;52.506;5.486;2024-03-08T12:39:21;22.42;;;12.48;;
78875;SDS011;68253;52.506;5.486;2024-03-08T12:41:55;21.35;;;11.82;;
78875;SDS011;68253;52.506;5.486;2024-03-08T12:44:25;18.30;;;10.68;;
78875;SDS011;68253;52.506;5.486;2024-03-08T12:46:51;21.75;;;12.35;;
78875;SDS011;68253;52.506;5.486;2024-03-08T12:49:19;22.08;;;12.98;;
78875;SDS011;68253;52.506;5.486;2024-03-08T12:51:48;22.40;;;12.55;;
78875;SDS011;68253;52.506;5.486;2024-03-08T12:54:14;19.75;;;11.60;;
78875;SDS011;68253;52.506;5.486;2024-03-08T12:56:40;20.52;;;11.45;;
78875;SDS011;68253;52.506;5.486;2024-03-08T12:59:07;20.88;;;11.52;;
78875;SDS011;68253;52.506;5.486;2024-03-08T13:01:34;22.75;;;12.90;;
78875;SDS011;68253;52.506;5.486;2024-03-08T13:04:03;21.40;;;11.85;;
78875;SDS011;68253;52.506;5.486;2024-03-08T13:06:31;22.52;;;12.35;;
78875;SDS011;68253;52.506;5.486;2024-03-08T13:08:58;22.73;;;12.35;;
78875;SDS011;68253;52.506;5.486;2024-03-08T13:11:26;21.95;;;12.20;;
78875;SDS011;68253;52.506;5.486;2024-03-08T13:13:52;20.33;;;11.35;;
78875;SDS011;68253;52.506;5.486;2024-03-08T13:16:19;18.35;;;10.02;;
78875;SDS011;68253;52.506;5.486;2024-03-08T13:18:46;20.23;;;12.20;;
78875;SDS011;68253;52.506;5.486;2024-03-08T13:21:14;21.63;;;11.95;;
78875;SDS011;68253;52.506;5.486;2024-03-08T13:23:41;20.42;;;11.65;;
78875;SDS011;68253;52.506;5.486;2024-03-08T13:26:11;19.98;;;11.50;;
78875;SDS011;68253;52.506;5.486;2024-03-08T13:28:45;20.98;;;10.82;;
78875;SDS011;68253;52.506;5.486;2024-03-08T13:31:11;20.35;;;12.02;;
78875;SDS011;68253;52.506;5.486;2024-03-08T13:33:37;28.67;;;13.07;;
78875;SDS011;68253;52.506;5.486;2024-03-08T13:36:08;21.33;;;11.82;;
78875;SDS011;68253;52.506;5.486;2024-03-08T13:38:41;25.58;;;14.45;;
78875;SDS011;68253;52.506;5.486;2024-03-08T13:41:10;20.83;;;12.13;;
78875;SDS011;68253;52.506;5.486;2024-03-08T13:43:37;25.08;;;13.10;;
78875;SDS011;68253;52.506;5.486;2024-03-08T13:46:05;22.83;;;13.98;;
78875;SDS011;68253;52.506;5.486;2024-03-08T13:48:33;24.02;;;14.40;;
78875;SDS011;68253;52.506;5.486;2024-03-08T13:50:59;21.58;;;13.02;;
78875;SDS011;68253;52.506;5.486;2024-03-08T13:53:26;24.58;;;14.43;;
78875;SDS011;68253;52.506;5.486;2024-03-08T13:55:52;23.52;;;14.38;;
78875;SDS011;68253;52.506;5.486;2024-03-08T13:58:18;23.77;;;13.70;;
78875;SDS011;68253;52.506;5.486;2024-03-08T14:00:46;26.40;;;14.07;;
78875;SDS011;68253;52.506;5.486;2024-03-08T14:03:13;25.52;;;13.13;;
78875;SDS011;68253;52.506;5.486;2024-03-08T14:05:40;24.10;;;13.73;;
78875;SDS011;68253;52.506;5.486;2024-03-08T14:08:07;24.25;;;14.77;;
78875;SDS011;68253;52.506;5.486;2024-03-08T14:10:37;23.73;;;13.35;;
78875;SDS011;68253;52.506;5.486;2024-03-08T14:13:04;21.13;;;12.18;;
78875;SDS011;68253;52.506;5.486;2024-03-08T14:15:32;24.05;;;12.95;;
78875;SDS011;68253;52.506;5.486;2024-03-08T14:18:00;22.58;;;12.45;;
78875;SDS011;68253;52.506;5.486;2024-03-08T14:20:27;23.63;;;13.15;;
78875;SDS011;68253;52.506;5.486;2024-03-08T14:22:59;22.33;;;11.60;;
78875;SDS011;68253;52.506;5.486;2024-03-08T14:25:25;23.48;;;13.35;;
78875;SDS011;68253;52.506;5.486;2024-03-08T14:27:51;23.50;;;12.63;;
78875;SDS011;68253;52.506;5.486;2024-03-08T14:30:22;22.40;;;13.32;;
78875;SDS011;68253;52.506;5.486;2024-03-08T14:33:04;23.27;;;13.10;;
78875;SDS011;68253;52.506;5.486;2024-03-08T14:35:31;22.05;;;12.70;;
78875;SDS011;68253;52.506;5.486;2024-03-08T14:37:57;21.75;;;12.75;;
78875;SDS011;68253;52.506;5.486;2024-03-08T14:40:24;22.33;;;12.68;;
78875;SDS011;68253;52.506;5.486;2024-03-08T14:42:51;23.63;;;12.60;;
78875;SDS011;68253;52.506;5.486;2024-03-08T14:45:18;24.02;;;13.27;;
78875;SDS011;68253;52.506;5.486;2024-03-08T14:47:48;23.08;;;13.23;;
78875;SDS011;68253;52.506;5.486;2024-03-08T14:50:16;23.10;;;13.77;;